sensor_id;sensor_type;location;lat;lon;timestamp;P1;durP1;ratioP1;P2;durP2;ratioP2
68074;SDS011;54864;52.002;5.468;2023-03-14T00:00:03;14.10;;;4.00;;
68074;SDS011;54864;52.002;5.468;2023-03-14T00:01:09;12.63;;;4.00;;
68074;SDS011;54864;52.002;5.468;2023-03-14T00:02:12;16.33;;;4.63;;
68074;SDS011;54864;52.002;5.468;2023-03-14T00:03:13;12.35;;;3.90;;
68074;SDS011;54864;52.002;5.468;2023-03-14T00:04:15;18.92;;;4.55;;
68074;SDS011;54864;52.002;5.468;2023-03-14T00:05:16;14.20;;;3.83;;
68074;SDS011;54864;52.002;5.468;2023-03-14T00:06:17;17.35;;;4.13;;
68074;SDS011;54864;52.002;5.468;2023-03-14T00:07:18;18.87;;;4.53;;
68074;SDS011;54864;52.002;5.468;2023-03-14T00:08:20;14.07;;;4.25;;
68074;SDS011;54864;52.002;5.468;2023-03-14T00:09:21;13.30;;;3.90;;
68074;SDS011;54864;52.002;5.468;2023-03-14T00:10:24;17.60;;;4.60;;
68074;SDS011;54864;52.002;5.468;2023-03-14T00:11:25;15.40;;;4.55;;
68074;SDS011;54864;52.002;5.468;2023-03-14T00:12:27;15.38;;;3.95;;
68074;SDS011;54864;52.002;5.468;2023-03-14T00:13:28;14.05;;;4.43;;
68074;SDS011;54864;52.002;5.468;2023-03-14T00:14:30;15.93;;;4.30;;
68074;SDS011;54864;52.002;5.468;2023-03-14T00:15:32;20.77;;;5.07;;
68074;SDS011;54864;52.002;5.468;2023-03-14T00:16:34;19.08;;;4.28;;
68074;SDS011;54864;52.002;5.468;2023-03-14T00:17:35;21.27;;;5.45;;
68074;SDS011;54864;52.002;5.468;2023-03-14T00:18:37;19.08;;;4.70;;
68074;SDS011;54864;52.002;5.468;2023-03-14T00:19:38;17.75;;;4.50;;
68074;SDS011;54864;52.002;5.468;2023-03-14T00:20:40;16.15;;;4.57;;
68074;SDS011;54864;52.002;5.468;2023-03-14T00:21:41;18.60;;;4.32;;
68074;SDS011;54864;52.002;5.468;2023-03-14T00:22:42;13.65;;;4.40;;
68074;SDS011;54864;52.002;5.468;2023-03-14T00:23:43;21.10;;;4.90;;
68074;SDS011;54864;52.002;5.468;2023-03-14T00:24:45;17.75;;;4.93;;
68074;SDS011;54864;52.002;5.468;2023-03-14T00:25:47;15.15;;;4.43;;
68074;SDS011;54864;52.002;5.468;2023-03-14T00:26:49;18.93;;;4.60;;
68074;SDS011;54864;52.002;5.468;2023-03-14T00:27:50;14.67;;;4.27;;
68074;SDS011;54864;52.002;5.468;2023-03-14T00:28:52;15.55;;;4.40;;
68074;SDS011;54864;52.002;5.468;2023-03-14T00:29:55;18.30;;;4.65;;
68074;SDS011;54864;52.002;5.468;2023-03-14T00:30:56;17.58;;;4.30;;
68074;SDS011;54864;52.002;5.468;2023-03-14T00:32:06;13.32;;;3.70;;
68074;SDS011;54864;52.002;5.468;2023-03-14T00:33:07;17.77;;;4.00;;
68074;SDS011;54864;52.002;5.468;2023-03-14T00:34:09;16.50;;;4.45;;
68074;SDS011;54864;52.002;5.468;2023-03-14T00:35:10;18.63;;;4.75;;
68074;SDS011;54864;52.002;5.468;2023-03-14T00:36:12;15.85;;;3.92;;
68074;SDS011;54864;52.002;5.468;2023-03-14T00:37:14;22.17;;;4.63;;
68074;SDS011;54864;52.002;5.468;2023-03-14T00:38:16;19.50;;;4.53;;
68074;SDS011;54864;52.002;5.468;2023-03-14T00:39:17;19.30;;;4.40;;
68074;SDS011;54864;52.002;5.468;2023-03-14T00:40:19;16.77;;;4.13;;
68074;SDS011;54864;52.002;5.468;2023-03-14T00:41:21;17.23;;;3.80;;
68074;SDS011;54864;52.002;5.468;2023-03-14T00:42:24;17.13;;;4.15;;
68074;SDS011;54864;52.002;5.468;2023-03-14T00:43:25;16.08;;;4.50;;
68074;SDS011;54864;52.002;5.468;2023-03-14T00:44:27;14.52;;;4.40;;
68074;SDS011;54864;52.002;5.468;2023-03-14T00:45:27;12.67;;;3.83;;
68074;SDS011;54864;52.002;5.468;2023-03-14T00:46:29;20.20;;;4.93;;
68074;SDS011;54864;52.002;5.468;2023-03-14T00:47:30;12.95;;;3.75;;
68074;SDS011;54864;52.002;5.468;2023-03-14T00:48:32;13.18;;;3.30;;
68074;SDS011;54864;52.002;5.468;2023-03-14T00:49:32;17.05;;;4.03;;
68074;SDS011;54864;52.002;5.468;2023-03-14T00:50:34;16.50;;;3.85;;
68074;SDS011;54864;52.002;5.468;2023-03-14T00:51:35;15.88;;;3.13;;
68074;SDS011;54864;52.002;5.468;2023-03-14T00:52:37;13.15;;;3.60;;
68074;SDS011;54864;52.002;5.468;2023-03-14T00:53:38;15.90;;;3.38;;
68074;SDS011;54864;52.002;5.468;2023-03-14T00:54:40;14.30;;;3.50;;
68074;SDS011;54864;52.002;5.468;2023-03-14T00:55:42;12.47;;;3.37;;
68074;SDS011;54864;52.002;5.468;2023-03-14T00:56:46;19.47;;;3.90;;
68074;SDS011;54864;52.002;5.468;2023-03-14T00:57:46;15.27;;;3.95;;
68074;SDS011;54864;52.002;5.468;2023-03-14T00:58:48;14.10;;;3.00;;
68074;SDS011;54864;52.002;5.468;2023-03-14T00:59:50;9.88;;;3.05;;
68074;SDS011;54864;52.002;5.468;2023-03-14T01:00:53;13.80;;;3.13;;
68074;SDS011;54864;52.002;5.468;2023-03-14T01:01:54;13.43;;;2.83;;
68074;SDS011;54864;52.002;5.468;2023-03-14T01:02:55;13.63;;;3.50;;
68074;SDS011;54864;52.002;5.468;2023-03-14T01:03:56;15.13;;;3.73;;
68074;SDS011;54864;52.002;5.468;2023-03-14T01:05:03;11.27;;;3.05;;
68074;SDS011;54864;52.002;5.468;2023-03-14T01:06:08;15.50;;;3.58;;
68074;SDS011;54864;52.002;5.468;2023-03-14T01:07:11;12.15;;;3.28;;
68074;SDS011;54864;52.002;5.468;2023-03-14T01:08:12;16.27;;;2.90;;
68074;SDS011;54864;52.002;5.468;2023-03-14T01:09:14;13.68;;;3.03;;
68074;SDS011;54864;52.002;5.468;2023-03-14T01:10:17;12.48;;;2.80;;
68074;SDS011;54864;52.002;5.468;2023-03-14T01:11:20;14.90;;;3.83;;
68074;SDS011;54864;52.002;5.468;2023-03-14T01:12:24;11.98;;;3.00;;
68074;SDS011;54864;52.002;5.468;2023-03-14T01:13:26;13.27;;;3.17;;
68074;SDS011;54864;52.002;5.468;2023-03-14T01:14:26;14.77;;;3.03;;
68074;SDS011;54864;52.002;5.468;2023-03-14T01:15:28;12.43;;;3.00;;
68074;SDS011;54864;52.002;5.468;2023-03-14T01:16:30;11.17;;;3.37;;
68074;SDS011;54864;52.002;5.468;2023-03-14T01:17:33;14.45;;;3.60;;
68074;SDS011;54864;52.002;5.468;2023-03-14T01:18:34;18.08;;;3.85;;
68074;SDS011;54864;52.002;5.468;2023-03-14T01:19:36;16.02;;;3.47;;
68074;SDS011;54864;52.002;5.468;2023-03-14T01:20:38;14.60;;;2.85;;
68074;SDS011;54864;52.002;5.468;2023-03-14T01:21:38;13.23;;;4.00;;
68074;SDS011;54864;52.002;5.468;2023-03-14T01:22:40;12.90;;;3.10;;
68074;SDS011;54864;52.002;5.468;2023-03-14T01:23:42;12.25;;;3.28;;
68074;SDS011;54864;52.002;5.468;2023-03-14T01:24:44;13.38;;;3.00;;
68074;SDS011;54864;52.002;5.468;2023-03-14T01:25:45;14.73;;;2.60;;
68074;SDS011;54864;52.002;5.468;2023-03-14T01:26:47;12.57;;;3.00;;
68074;SDS011;54864;52.002;5.468;2023-03-14T01:27:49;12.63;;;3.50;;
68074;SDS011;54864;52.002;5.468;2023-03-14T01:28:52;15.97;;;3.43;;
68074;SDS011;54864;52.002;5.468;2023-03-14T01:29:53;16.92;;;3.28;;
68074;SDS011;54864;52.002;5.468;2023-03-14T01:30:55;12.33;;;3.47;;
68074;SDS011;54864;52.002;5.468;2023-03-14T01:31:56;12.87;;;3.13;;
68074;SDS011;54864;52.002;5.468;2023-03-14T01:32:57;14.45;;;3.53;;
68074;SDS011;54864;52.002;5.468;2023-03-14T01:34:01;10.38;;;3.58;;
68074;SDS011;54864;52.002;5.468;2023-03-14T01:35:03;16.43;;;3.93;;
68074;SDS011;54864;52.002;5.468;2023-03-14T01:36:05;11.48;;;3.05;;
68074;SDS011;54864;52.002;5.468;2023-03-14T01:37:08;14.85;;;3.85;;
68074;SDS011;54864;52.002;5.468;2023-03-14T01:38:09;12.23;;;3.35;;
68074;SDS011;54864;52.002;5.468;2023-03-14T01:39:11;14.10;;;3.15;;
68074;SDS011;54864;52.002;5.468;2023-03-14T01:40:13;14.40;;;3.40;;
68074;SDS011;54864;52.002;5.468;2023-03-14T01:41:17;11.63;;;3.75;;
68074;SDS011;54864;52.002;5.468;2023-03-14T01:42:19;14.68;;;3.28;;
68074;SDS011;54864;52.002;5.468;2023-03-14T01:43:22;15.10;;;3.05;;
68074;SDS011;54864;52.002;5.468;2023-03-14T01:44:24;10.57;;;3.70;;
68074;SDS011;54864;52.002;5.468;2023-03-14T01:47:19;13.10;;;3.47;;
68074;SDS011;54864;52.002;5.468;2023-03-14T01:48:21;18.25;;;3.72;;
68074;SDS011;54864;52.002;5.468;2023-03-14T01:49:24;12.85;;;3.28;;
68074;SDS011;54864;52.002;5.468;2023-03-14T01:50:30;16.38;;;3.28;;
68074;SDS011;54864;52.002;5.468;2023-03-14T01:51:33;17.92;;;3.50;;
68074;SDS011;54864;52.002;5.468;2023-03-14T01:52:40;12.30;;;3.20;;
68074;SDS011;54864;52.002;5.468;2023-03-14T01:53:44;13.30;;;4.13;;
68074;SDS011;54864;52.002;5.468;2023-03-14T01:54:49;18.37;;;4.20;;
68074;SDS011;54864;52.002;5.468;2023-03-14T01:55:53;10.80;;;2.53;;
68074;SDS011;54864;52.002;5.468;2023-03-14T01:56:57;11.20;;;3.10;;
68074;SDS011;54864;52.002;5.468;2023-03-14T01:58:08;12.70;;;3.05;;
68074;SDS011;54864;52.002;5.468;2023-03-14T01:59:10;9.77;;;2.63;;
68074;SDS011;54864;52.002;5.468;2023-03-14T02:00:14;12.18;;;3.13;;
68074;SDS011;54864;52.002;5.468;2023-03-14T02:01:17;12.27;;;3.00;;
68074;SDS011;54864;52.002;5.468;2023-03-14T02:02:21;10.60;;;3.17;;
68074;SDS011;54864;52.002;5.468;2023-03-14T02:03:26;11.23;;;3.05;;
68074;SDS011;54864;52.002;5.468;2023-03-14T02:04:31;11.60;;;3.20;;
68074;SDS011;54864;52.002;5.468;2023-03-14T02:05:37;15.02;;;3.22;;
68074;SDS011;54864;52.002;5.468;2023-03-14T02:06:41;17.35;;;3.63;;
68074;SDS011;54864;52.002;5.468;2023-03-14T02:07:50;17.15;;;4.18;;
68074;SDS011;54864;52.002;5.468;2023-03-14T02:08:52;10.40;;;3.05;;
68074;SDS011;54864;52.002;5.468;2023-03-14T02:09:55;10.27;;;3.20;;
68074;SDS011;54864;52.002;5.468;2023-03-14T02:11:01;12.73;;;3.33;;
68074;SDS011;54864;52.002;5.468;2023-03-14T02:12:03;15.52;;;3.78;;
68074;SDS011;54864;52.002;5.468;2023-03-14T02:13:05;11.30;;;3.25;;
68074;SDS011;54864;52.002;5.468;2023-03-14T02:14:07;11.20;;;3.17;;
68074;SDS011;54864;52.002;5.468;2023-03-14T02:15:18;11.98;;;3.65;;
68074;SDS011;54864;52.002;5.468;2023-03-14T02:16:19;10.80;;;3.50;;
68074;SDS011;54864;52.002;5.468;2023-03-14T02:17:21;12.15;;;3.65;;
68074;SDS011;54864;52.002;5.468;2023-03-14T02:18:24;13.02;;;3.70;;
68074;SDS011;54864;52.002;5.468;2023-03-14T02:19:29;16.58;;;3.88;;
68074;SDS011;54864;52.002;5.468;2023-03-14T02:20:44;12.63;;;4.90;;
68074;SDS011;54864;52.002;5.468;2023-03-14T02:21:51;13.75;;;4.57;;
68074;SDS011;54864;52.002;5.468;2023-03-14T02:22:59;10.85;;;4.43;;
68074;SDS011;54864;52.002;5.468;2023-03-14T02:24:04;16.50;;;5.05;;
68074;SDS011;54864;52.002;5.468;2023-03-14T02:25:16;15.48;;;4.70;;
68074;SDS011;54864;52.002;5.468;2023-03-14T02:26:23;14.65;;;4.70;;
68074;SDS011;54864;52.002;5.468;2023-03-14T02:27:29;13.63;;;4.47;;
68074;SDS011;54864;52.002;5.468;2023-03-14T02:28:32;13.10;;;4.40;;
68074;SDS011;54864;52.002;5.468;2023-03-14T02:29:36;15.00;;;4.57;;
68074;SDS011;54864;52.002;5.468;2023-03-14T02:30:42;12.23;;;4.40;;
68074;SDS011;54864;52.002;5.468;2023-03-14T02:31:43;11.45;;;4.07;;
68074;SDS011;54864;52.002;5.468;2023-03-14T02:32:47;10.43;;;4.17;;
68074;SDS011;54864;52.002;5.468;2023-03-14T02:33:50;12.20;;;4.15;;
68074;SDS011;54864;52.002;5.468;2023-03-14T02:34:53;13.93;;;4.32;;
68074;SDS011;54864;52.002;5.468;2023-03-14T02:35:57;13.20;;;4.80;;
68074;SDS011;54864;52.002;5.468;2023-03-14T02:37:02;17.75;;;4.63;;
68074;SDS011;54864;52.002;5.468;2023-03-14T02:38:06;13.38;;;4.13;;
68074;SDS011;54864;52.002;5.468;2023-03-14T02:39:18;16.63;;;4.50;;
68074;SDS011;54864;52.002;5.468;2023-03-14T02:40:24;14.07;;;4.35;;
68074;SDS011;54864;52.002;5.468;2023-03-14T02:41:26;15.52;;;4.30;;
68074;SDS011;54864;52.002;5.468;2023-03-14T02:42:27;16.48;;;4.50;;
68074;SDS011;54864;52.002;5.468;2023-03-14T02:43:30;11.13;;;4.15;;
68074;SDS011;54864;52.002;5.468;2023-03-14T02:44:31;13.82;;;4.80;;
68074;SDS011;54864;52.002;5.468;2023-03-14T02:45:34;9.35;;;4.07;;
68074;SDS011;54864;52.002;5.468;2023-03-14T02:46:37;11.98;;;4.32;;
68074;SDS011;54864;52.002;5.468;2023-03-14T02:47:40;14.30;;;4.53;;
68074;SDS011;54864;52.002;5.468;2023-03-14T02:48:45;14.10;;;4.20;;
68074;SDS011;54864;52.002;5.468;2023-03-14T02:49:51;14.07;;;4.07;;
68074;SDS011;54864;52.002;5.468;2023-03-14T02:50:55;12.90;;;4.03;;
68074;SDS011;54864;52.002;5.468;2023-03-14T02:52:01;11.85;;;3.88;;
68074;SDS011;54864;52.002;5.468;2023-03-14T02:53:03;15.73;;;4.32;;
68074;SDS011;54864;52.002;5.468;2023-03-14T02:54:04;11.45;;;3.67;;
68074;SDS011;54864;52.002;5.468;2023-03-14T02:55:05;13.65;;;4.30;;
68074;SDS011;54864;52.002;5.468;2023-03-14T02:56:08;14.10;;;4.00;;
68074;SDS011;54864;52.002;5.468;2023-03-14T02:57:09;12.80;;;4.75;;
68074;SDS011;54864;52.002;5.468;2023-03-14T02:58:11;12.02;;;4.13;;
68074;SDS011;54864;52.002;5.468;2023-03-14T02:59:13;17.77;;;4.65;;
68074;SDS011;54864;52.002;5.468;2023-03-14T03:00:16;12.70;;;4.05;;
68074;SDS011;54864;52.002;5.468;2023-03-14T03:01:17;14.57;;;4.10;;
68074;SDS011;54864;52.002;5.468;2023-03-14T03:02:19;8.10;;;3.30;;
68074;SDS011;54864;52.002;5.468;2023-03-14T03:03:19;13.23;;;4.03;;
68074;SDS011;54864;52.002;5.468;2023-03-14T03:04:21;11.55;;;3.65;;
68074;SDS011;54864;52.002;5.468;2023-03-14T03:05:22;14.67;;;4.20;;
68074;SDS011;54864;52.002;5.468;2023-03-14T03:06:23;13.20;;;3.83;;
68074;SDS011;54864;52.002;5.468;2023-03-14T03:07:24;13.07;;;3.88;;
68074;SDS011;54864;52.002;5.468;2023-03-14T03:08:26;11.90;;;3.95;;
68074;SDS011;54864;52.002;5.468;2023-03-14T03:09:28;14.18;;;3.90;;
68074;SDS011;54864;52.002;5.468;2023-03-14T03:10:30;16.80;;;3.63;;
68074;SDS011;54864;52.002;5.468;2023-03-14T03:11:31;16.17;;;4.20;;
68074;SDS011;54864;52.002;5.468;2023-03-14T03:12:33;14.52;;;3.97;;
68074;SDS011;54864;52.002;5.468;2023-03-14T03:13:34;15.27;;;4.47;;
68074;SDS011;54864;52.002;5.468;2023-03-14T03:14:37;12.95;;;4.10;;
68074;SDS011;54864;52.002;5.468;2023-03-14T03:15:38;13.90;;;4.30;;
68074;SDS011;54864;52.002;5.468;2023-03-14T03:16:40;13.18;;;4.43;;
68074;SDS011;54864;52.002;5.468;2023-03-14T03:17:41;11.10;;;4.03;;
68074;SDS011;54864;52.002;5.468;2023-03-14T03:18:42;16.73;;;4.20;;
68074;SDS011;54864;52.002;5.468;2023-03-14T03:19:43;16.30;;;3.95;;
68074;SDS011;54864;52.002;5.468;2023-03-14T03:20:45;12.43;;;4.22;;
68074;SDS011;54864;52.002;5.468;2023-03-14T03:21:45;15.23;;;4.57;;
68074;SDS011;54864;52.002;5.468;2023-03-14T03:22:48;15.10;;;3.97;;
68074;SDS011;54864;52.002;5.468;2023-03-14T03:23:50;14.63;;;4.05;;
68074;SDS011;54864;52.002;5.468;2023-03-14T03:24:52;14.68;;;4.47;;
68074;SDS011;54864;52.002;5.468;2023-03-14T03:25:52;15.17;;;4.23;;
68074;SDS011;54864;52.002;5.468;2023-03-14T03:26:54;20.88;;;4.80;;
68074;SDS011;54864;52.002;5.468;2023-03-14T03:27:55;10.10;;;3.65;;
68074;SDS011;54864;52.002;5.468;2023-03-14T03:28:57;15.70;;;4.70;;
68074;SDS011;54864;52.002;5.468;2023-03-14T03:29:59;15.75;;;4.07;;
68074;SDS011;54864;52.002;5.468;2023-03-14T03:31:07;13.38;;;4.18;;
68074;SDS011;54864;52.002;5.468;2023-03-14T03:32:08;17.38;;;4.93;;
68074;SDS011;54864;52.002;5.468;2023-03-14T03:33:10;13.95;;;3.58;;
68074;SDS011;54864;52.002;5.468;2023-03-14T03:34:12;13.43;;;4.28;;
68074;SDS011;54864;52.002;5.468;2023-03-14T03:35:14;12.52;;;3.88;;
68074;SDS011;54864;52.002;5.468;2023-03-14T03:36:17;11.20;;;3.83;;
68074;SDS011;54864;52.002;5.468;2023-03-14T03:37:22;18.75;;;5.05;;
68074;SDS011;54864;52.002;5.468;2023-03-14T03:38:23;12.77;;;4.05;;
68074;SDS011;54864;52.002;5.468;2023-03-14T03:39:25;13.47;;;3.93;;
68074;SDS011;54864;52.002;5.468;2023-03-14T03:40:26;13.73;;;4.53;;
68074;SDS011;54864;52.002;5.468;2023-03-14T03:41:28;15.82;;;3.80;;
68074;SDS011;54864;52.002;5.468;2023-03-14T03:42:29;14.20;;;3.92;;
68074;SDS011;54864;52.002;5.468;2023-03-14T03:43:30;12.27;;;4.10;;
68074;SDS011;54864;52.002;5.468;2023-03-14T03:44:31;18.08;;;4.30;;
68074;SDS011;54864;52.002;5.468;2023-03-14T03:45:35;13.48;;;4.05;;
68074;SDS011;54864;52.002;5.468;2023-03-14T03:46:35;14.23;;;3.80;;
68074;SDS011;54864;52.002;5.468;2023-03-14T03:47:37;20.02;;;4.80;;
68074;SDS011;54864;52.002;5.468;2023-03-14T03:48:38;17.63;;;4.17;;
68074;SDS011;54864;52.002;5.468;2023-03-14T03:49:40;15.30;;;4.80;;
68074;SDS011;54864;52.002;5.468;2023-03-14T03:50:43;17.73;;;4.35;;
68074;SDS011;54864;52.002;5.468;2023-03-14T03:51:46;16.60;;;4.07;;
68074;SDS011;54864;52.002;5.468;2023-03-14T03:52:46;14.43;;;3.97;;
68074;SDS011;54864;52.002;5.468;2023-03-14T03:53:48;16.15;;;4.22;;
68074;SDS011;54864;52.002;5.468;2023-03-14T03:54:49;17.25;;;3.92;;
68074;SDS011;54864;52.002;5.468;2023-03-14T03:55:50;15.65;;;4.03;;
68074;SDS011;54864;52.002;5.468;2023-03-14T03:56:51;12.52;;;3.72;;
68074;SDS011;54864;52.002;5.468;2023-03-14T03:57:53;12.93;;;4.00;;
68074;SDS011;54864;52.002;5.468;2023-03-14T03:58:54;18.17;;;3.97;;
68074;SDS011;54864;52.002;5.468;2023-03-14T03:59:55;13.80;;;4.30;;
68074;SDS011;54864;52.002;5.468;2023-03-14T04:00:57;13.02;;;3.92;;
68074;SDS011;54864;52.002;5.468;2023-03-14T04:02:02;16.13;;;4.45;;
68074;SDS011;54864;52.002;5.468;2023-03-14T04:03:03;14.82;;;4.18;;
68074;SDS011;54864;52.002;5.468;2023-03-14T04:04:05;18.10;;;4.60;;
68074;SDS011;54864;52.002;5.468;2023-03-14T04:05:06;17.77;;;4.15;;
68074;SDS011;54864;52.002;5.468;2023-03-14T04:06:08;15.80;;;4.10;;
68074;SDS011;54864;52.002;5.468;2023-03-14T04:07:11;19.70;;;4.05;;
68074;SDS011;54864;52.002;5.468;2023-03-14T04:08:14;17.27;;;4.53;;
68074;SDS011;54864;52.002;5.468;2023-03-14T04:09:14;16.02;;;4.15;;
68074;SDS011;54864;52.002;5.468;2023-03-14T04:10:16;16.10;;;4.30;;
68074;SDS011;54864;52.002;5.468;2023-03-14T04:11:17;16.40;;;4.20;;
68074;SDS011;54864;52.002;5.468;2023-03-14T04:12:19;13.77;;;4.13;;
68074;SDS011;54864;52.002;5.468;2023-03-14T04:13:20;20.45;;;4.50;;
68074;SDS011;54864;52.002;5.468;2023-03-14T04:14:22;17.48;;;4.22;;
68074;SDS011;54864;52.002;5.468;2023-03-14T04:15:23;21.00;;;5.13;;
68074;SDS011;54864;52.002;5.468;2023-03-14T04:16:26;15.57;;;4.68;;
68074;SDS011;54864;52.002;5.468;2023-03-14T04:17:27;14.65;;;4.35;;
68074;SDS011;54864;52.002;5.468;2023-03-14T04:18:28;19.67;;;4.20;;
68074;SDS011;54864;52.002;5.468;2023-03-14T04:19:30;14.55;;;4.50;;
68074;SDS011;54864;52.002;5.468;2023-03-14T04:21:34;14.43;;;4.43;;
68074;SDS011;54864;52.002;5.468;2023-03-14T04:22:36;14.82;;;4.05;;
68074;SDS011;54864;52.002;5.468;2023-03-14T04:23:37;17.17;;;4.57;;
68074;SDS011;54864;52.002;5.468;2023-03-14T04:24:38;15.48;;;3.85;;
68074;SDS011;54864;52.002;5.468;2023-03-14T04:25:39;13.40;;;3.80;;
68074;SDS011;54864;52.002;5.468;2023-03-14T04:26:41;14.85;;;4.03;;
68074;SDS011;54864;52.002;5.468;2023-03-14T04:27:42;15.32;;;4.18;;
68074;SDS011;54864;52.002;5.468;2023-03-14T04:28:43;15.20;;;4.30;;
68074;SDS011;54864;52.002;5.468;2023-03-14T04:29:45;16.15;;;3.92;;
68074;SDS011;54864;52.002;5.468;2023-03-14T04:30:46;12.65;;;4.03;;
68074;SDS011;54864;52.002;5.468;2023-03-14T04:31:48;14.60;;;3.75;;
68074;SDS011;54864;52.002;5.468;2023-03-14T04:32:50;16.85;;;4.80;;
68074;SDS011;54864;52.002;5.468;2023-03-14T04:33:51;14.27;;;4.07;;
68074;SDS011;54864;52.002;5.468;2023-03-14T04:34:54;12.50;;;3.88;;
68074;SDS011;54864;52.002;5.468;2023-03-14T04:35:55;13.00;;;4.47;;
68074;SDS011;54864;52.002;5.468;2023-03-14T04:36:57;15.35;;;3.55;;
68074;SDS011;54864;52.002;5.468;2023-03-14T04:37:57;18.83;;;4.30;;
68074;SDS011;54864;52.002;5.468;2023-03-14T04:39:02;15.50;;;4.28;;
68074;SDS011;54864;52.002;5.468;2023-03-14T04:40:04;14.45;;;4.35;;
68074;SDS011;54864;52.002;5.468;2023-03-14T04:41:07;16.27;;;4.88;;
68074;SDS011;54864;52.002;5.468;2023-03-14T04:42:08;15.90;;;4.43;;
68074;SDS011;54864;52.002;5.468;2023-03-14T04:43:10;13.35;;;3.90;;
68074;SDS011;54864;52.002;5.468;2023-03-14T04:44:11;14.38;;;3.63;;
68074;SDS011;54864;52.002;5.468;2023-03-14T04:45:13;18.40;;;4.57;;
68074;SDS011;54864;52.002;5.468;2023-03-14T04:46:14;16.17;;;4.30;;
68074;SDS011;54864;52.002;5.468;2023-03-14T04:47:17;11.90;;;3.88;;
68074;SDS011;54864;52.002;5.468;2023-03-14T04:48:18;14.73;;;4.07;;
68074;SDS011;54864;52.002;5.468;2023-03-14T04:49:20;12.10;;;3.90;;
68074;SDS011;54864;52.002;5.468;2023-03-14T04:50:20;13.70;;;3.65;;
68074;SDS011;54864;52.002;5.468;2023-03-14T04:51:22;14.82;;;4.20;;
68074;SDS011;54864;52.002;5.468;2023-03-14T04:52:23;14.07;;;3.90;;
68074;SDS011;54864;52.002;5.468;2023-03-14T04:53:25;9.43;;;3.50;;
68074;SDS011;54864;52.002;5.468;2023-03-14T04:54:26;13.43;;;3.77;;
68074;SDS011;54864;52.002;5.468;2023-03-14T04:55:27;12.10;;;3.40;;
68074;SDS011;54864;52.002;5.468;2023-03-14T04:56:28;14.57;;;4.07;;
68074;SDS011;54864;52.002;5.468;2023-03-14T04:57:30;12.05;;;3.75;;
68074;SDS011;54864;52.002;5.468;2023-03-14T04:58:30;13.07;;;3.53;;
68074;SDS011;54864;52.002;5.468;2023-03-14T04:59:32;25.80;;;3.90;;
68074;SDS011;54864;52.002;5.468;2023-03-14T05:00:33;13.23;;;3.60;;
68074;SDS011;54864;52.002;5.468;2023-03-14T05:01:35;11.90;;;3.55;;
68074;SDS011;54864;52.002;5.468;2023-03-14T05:02:37;14.80;;;3.40;;
68074;SDS011;54864;52.002;5.468;2023-03-14T05:03:39;11.77;;;3.75;;
68074;SDS011;54864;52.002;5.468;2023-03-14T05:04:40;12.70;;;3.33;;
68074;SDS011;54864;52.002;5.468;2023-03-14T05:05:42;9.40;;;3.13;;
68074;SDS011;54864;52.002;5.468;2023-03-14T05:06:42;13.47;;;3.47;;
68074;SDS011;54864;52.002;5.468;2023-03-14T05:07:44;14.07;;;3.72;;
68074;SDS011;54864;52.002;5.468;2023-03-14T05:08:45;12.13;;;3.42;;
68074;SDS011;54864;52.002;5.468;2023-03-14T05:09:47;14.93;;;4.07;;
68074;SDS011;54864;52.002;5.468;2023-03-14T05:10:51;11.33;;;3.50;;
68074;SDS011;54864;52.002;5.468;2023-03-14T05:11:53;17.75;;;3.95;;
68074;SDS011;54864;52.002;5.468;2023-03-14T05:12:54;9.38;;;3.22;;
68074;SDS011;54864;52.002;5.468;2023-03-14T05:13:56;12.85;;;3.88;;
68074;SDS011;54864;52.002;5.468;2023-03-14T05:14:57;11.35;;;3.50;;
68074;SDS011;54864;52.002;5.468;2023-03-14T05:16:05;10.23;;;3.33;;
68074;SDS011;54864;52.002;5.468;2023-03-14T05:17:07;14.40;;;4.20;;
68074;SDS011;54864;52.002;5.468;2023-03-14T05:18:10;10.40;;;3.13;;
68074;SDS011;54864;52.002;5.468;2023-03-14T05:19:11;12.05;;;3.40;;
68074;SDS011;54864;52.002;5.468;2023-03-14T05:20:12;10.43;;;3.60;;
68074;SDS011;54864;52.002;5.468;2023-03-14T05:21:13;10.48;;;3.45;;
68074;SDS011;54864;52.002;5.468;2023-03-14T05:22:15;9.15;;;3.05;;
68074;SDS011;54864;52.002;5.468;2023-03-14T05:23:16;8.63;;;3.03;;
68074;SDS011;54864;52.002;5.468;2023-03-14T05:24:18;11.63;;;3.33;;
68074;SDS011;54864;52.002;5.468;2023-03-14T05:25:18;11.73;;;3.73;;
68074;SDS011;54864;52.002;5.468;2023-03-14T05:26:20;13.25;;;3.63;;
68074;SDS011;54864;52.002;5.468;2023-03-14T05:27:21;11.15;;;4.00;;
68074;SDS011;54864;52.002;5.468;2023-03-14T05:28:22;16.95;;;4.00;;
68074;SDS011;54864;52.002;5.468;2023-03-14T05:29:23;11.37;;;3.73;;
68074;SDS011;54864;52.002;5.468;2023-03-14T05:30:25;10.32;;;3.70;;
68074;SDS011;54864;52.002;5.468;2023-03-14T05:31:25;11.55;;;3.60;;
68074;SDS011;54864;52.002;5.468;2023-03-14T05:32:27;9.80;;;3.80;;
68074;SDS011;54864;52.002;5.468;2023-03-14T05:33:29;10.80;;;3.33;;
68074;SDS011;54864;52.002;5.468;2023-03-14T05:34:31;15.20;;;4.15;;
68074;SDS011;54864;52.002;5.468;2023-03-14T05:35:32;10.90;;;3.75;;
68074;SDS011;54864;52.002;5.468;2023-03-14T05:36:34;8.88;;;3.80;;
68074;SDS011;54864;52.002;5.468;2023-03-14T05:37:34;10.68;;;3.75;;
68074;SDS011;54864;52.002;5.468;2023-03-14T05:38:36;9.05;;;3.60;;
68074;SDS011;54864;52.002;5.468;2023-03-14T05:39:37;11.13;;;3.77;;
68074;SDS011;54864;52.002;5.468;2023-03-14T05:40:39;9.63;;;3.70;;
68074;SDS011;54864;52.002;5.468;2023-03-14T05:41:39;12.68;;;4.03;;
68074;SDS011;54864;52.002;5.468;2023-03-14T05:42:41;9.35;;;3.60;;
68074;SDS011;54864;52.002;5.468;2023-03-14T05:43:42;13.30;;;4.23;;
68074;SDS011;54864;52.002;5.468;2023-03-14T05:44:43;10.05;;;3.80;;
68074;SDS011;54864;52.002;5.468;2023-03-14T05:45:44;12.82;;;4.38;;
68074;SDS011;54864;52.002;5.468;2023-03-14T05:46:46;11.80;;;4.93;;
68074;SDS011;54864;52.002;5.468;2023-03-14T05:47:47;12.40;;;4.63;;
68074;SDS011;54864;52.002;5.468;2023-03-14T05:48:50;12.02;;;4.63;;
68074;SDS011;54864;52.002;5.468;2023-03-14T05:49:52;9.27;;;4.45;;
68074;SDS011;54864;52.002;5.468;2023-03-14T05:50:54;11.40;;;4.20;;
68074;SDS011;54864;52.002;5.468;2023-03-14T05:51:56;10.02;;;4.10;;
68074;SDS011;54864;52.002;5.468;2023-03-14T05:52:57;11.02;;;5.05;;
68074;SDS011;54864;52.002;5.468;2023-03-14T05:53:59;11.43;;;4.73;;
68074;SDS011;54864;52.002;5.468;2023-03-14T05:55:03;10.77;;;4.60;;
68074;SDS011;54864;52.002;5.468;2023-03-14T05:56:06;14.38;;;5.18;;
68074;SDS011;54864;52.002;5.468;2023-03-14T05:57:07;10.88;;;4.70;;
68074;SDS011;54864;52.002;5.468;2023-03-14T05:58:09;13.23;;;5.50;;
68074;SDS011;54864;52.002;5.468;2023-03-14T05:59:10;9.07;;;4.35;;
68074;SDS011;54864;52.002;5.468;2023-03-14T06:00:14;10.95;;;4.85;;
68074;SDS011;54864;52.002;5.468;2023-03-14T06:01:15;12.02;;;4.75;;
68074;SDS011;54864;52.002;5.468;2023-03-14T06:02:17;13.82;;;4.93;;
68074;SDS011;54864;52.002;5.468;2023-03-14T06:03:18;14.48;;;5.22;;
68074;SDS011;54864;52.002;5.468;2023-03-14T06:04:21;10.50;;;4.30;;
68074;SDS011;54864;52.002;5.468;2023-03-14T06:05:21;14.07;;;4.80;;
68074;SDS011;54864;52.002;5.468;2023-03-14T06:06:23;14.40;;;5.05;;
68074;SDS011;54864;52.002;5.468;2023-03-14T06:07:24;10.80;;;4.72;;
68074;SDS011;54864;52.002;5.468;2023-03-14T06:08:26;13.93;;;5.50;;
68074;SDS011;54864;52.002;5.468;2023-03-14T06:09:28;13.85;;;4.53;;
68074;SDS011;54864;52.002;5.468;2023-03-14T06:10:29;10.93;;;4.97;;
68074;SDS011;54864;52.002;5.468;2023-03-14T06:11:30;9.27;;;4.40;;
68074;SDS011;54864;52.002;5.468;2023-03-14T06:12:32;11.70;;;4.60;;